Erie International Tom Ridge Field
KERI : now visible

Airfield :











YOU CAN JOIN US ON...

 
LOGIN :

Register | Disclaimer

   EN    FR    IT 

 









Legend :    VFR   Marginal VFR   IFR   Intensive IFR   Very Intensive IFR
Visi :
Ceiling :
>= 8 km
>= 3000ft
5 to 8 km
1000 to 3000 ft
1500m to 5 km
500 to 1000 ft
800 to 1500m
200 to 500 ft
< 800m
< 200 ft
Symbols :   Thunderstorms  Fog  Heavy snow  Heavy precipitations  Wind > 20 kt






- Airport Elevation : 733 ft
- IATA code : ERI


KERI - Erie International Tom Ridge Field

CURRENT METAR :
  • 262117Z AUTO 25014G20KT 3SM -SN BR OVC006 02/M01 A2970 RMK AO2 RAE2054SNB2054 P0001 T00171006

EXPIRED METARs :
  • 262104Z AUTO 25013G25KT 2 1/2SM -SN OVC005 02/M01 A2969 RMK AO2 RAE2054SNB2054 P0001 T00221006
  • 262051Z 25014G26KT 3SM -RA BR OVC005 02/00 A2968 RMK AO2 PK WND 27026/2049 RAB44 SLP058 P0000 60000 T00220000 53020
  • 261951Z 24007KT 4SM BR OVC006 03/01 A2965 RMK AO2 SLP046 T00280006
  • 261938Z 23009KT 4SM BR OVC005 03/01 A2964 RMK AO2 T00280006
  • 261924Z 23009KT 4SM BR OVC004 03/01 A2963 RMK AO2 T00280006
  • 261915Z 24005KT 2 1/2SM BR OVC004 02/01 A2963 RMK AO2 T00220006
  • 261851Z 27004KT 1 3/4SM BR OVC004 02/01 A2962 RMK AO2 SLP038 T00220006

TAF KERI
Valid from the 26 at 18:00 until the 27 at 18:00 UTC


261723Z 2618/2718 04005KT 3SM BR BKN010
TEMPO 2618/2622 2SM BR BKN005
FM262200 24010KT 3SM BR BKN005
TEMPO 2622/2624 3SM -SHSN OVC008
FM270000 29011KT 4SM -SHSN BKN008
FM270900 33010KT P6SM VCSH OVC010
KZOB FIR / North America



MET'MAP, your aeronautical weather chart ! - Copyright ORBIFLY December 2007 - Disclaimer

ORBIFLY MET'MAP TEAM :

Programming & Development : Alexandra Zaïnal
Concept & original design : Baudouin d'Aumeries
Assistance for programming : Marc-Olivier Méhu
Technical & hardware support : Manuel Goepfert

Contact : metmap@orbifly.com




SOURCES & CREDITS :

   NOAA       Earth
Advisory